createdAt,value
2023-12-30T00:00:18.181Z,99772.22
2023-12-30T00:04:22.745Z,99771.53
2023-12-30T00:08:24.397Z,99768.28
2023-12-30T00:12:26.011Z,99787.78
2023-12-30T00:16:28.332Z,99775.81
2023-12-30T00:20:31.452Z,99784.88
2023-12-30T00:24:33.015Z,99787.28
2023-12-30T00:28:34.763Z,99791.47
2023-12-30T00:32:36.464Z,99783.91
2023-12-30T00:36:43.968Z,99787.97
2023-12-30T00:40:45.870Z,99780.50
2023-12-30T00:44:51.460Z,99783.59
2023-12-30T00:49:07.701Z,99791.34
2023-12-30T00:53:27.584Z,99796.66
2023-12-30T00:57:32.394Z,99807.53
2023-12-30T01:01:34.268Z,99802.34
2023-12-30T01:05:51.444Z,99813.97
2023-12-30T01:09:55.704Z,99818.47
2023-12-30T01:13:58.243Z,99809.66
2023-12-30T01:18:00.025Z,99821.63
2023-12-30T01:22:03.749Z,99820.69
2023-12-30T01:26:06.697Z,99812.34
2023-12-30T01:30:08.637Z,99827.34
2023-12-30T01:34:10.375Z,99825.84
2023-12-30T01:38:11.970Z,99836.75
2023-12-30T01:42:14.972Z,99824.81
2023-12-30T01:46:17.085Z,99825.50
2023-12-30T01:50:19.137Z,99843.09
2023-12-30T01:54:22.244Z,99847.66
2023-12-30T01:58:25.448Z,99859.09
2023-12-30T02:02:27.886Z,99869.72
2023-12-30T02:06:29.695Z,99871.53
2023-12-30T02:10:31.346Z,99873.19
2023-12-30T02:14:34.322Z,99896.69
2023-12-30T02:18:35.955Z,99894.47
2023-12-30T02:22:41.910Z,99886.06
2023-12-30T02:26:43.518Z,99897.31
2023-12-30T02:30:45.092Z,99892.53
2023-12-30T02:34:46.855Z,99902.13
2023-12-30T02:38:49.737Z,99900.91
2023-12-30T02:42:51.476Z,99912.63
2023-12-30T02:46:53.225Z,99918.84
2023-12-30T02:50:54.738Z,99906.22
2023-12-30T02:54:57.657Z,99908.31
2023-12-30T02:59:00.655Z,99910.06
2023-12-30T03:03:03.150Z,99896.59
2023-12-30T03:07:04.912Z,99914.84
2023-12-30T03:11:09.220Z,99914.03
2023-12-30T03:15:11.192Z,99913.03
2023-12-30T03:19:13.006Z,99922.09
2023-12-30T03:23:14.667Z,99906.09
2023-12-30T03:27:17.676Z,99908.88
2023-12-30T03:31:23.622Z,99926.41
2023-12-30T03:35:25.285Z,99932.53
2023-12-30T03:39:27.825Z,99928.63
2023-12-30T03:43:30.746Z,99926.59
2023-12-30T03:47:32.432Z,99923.66
2023-12-30T03:51:33.986Z,99932.53
2023-12-30T03:55:35.585Z,99923.03
2023-12-30T03:59:40.340Z,99916.53
2023-12-30T04:03:41.982Z,99923.00
2023-12-30T04:07:43.611Z,99921.00
2023-12-30T04:11:45.342Z,99933.06
2023-12-30T04:15:48.243Z,99928.16
2023-12-30T04:19:50.294Z,99927.25
2023-12-30T04:23:51.915Z,99934.59
2023-12-30T04:27:53.511Z,99930.00
2023-12-30T04:31:56.704Z,99930.72
2023-12-30T04:35:58.270Z,99933.97
2023-12-30T04:39:59.817Z,99939.16
2023-12-30T04:44:01.393Z,99955.00
2023-12-30T04:48:05.461Z,99943.38
2023-12-30T04:52:07.284Z,99946.03
2023-12-30T04:56:16.063Z,99947.34
2023-12-30T05:00:21.886Z,99960.91
2023-12-30T05:04:26.689Z,99952.38
2023-12-30T05:08:28.304Z,99956.03
2023-12-30T05:12:29.898Z,99963.44
2023-12-30T05:16:32.317Z,99958.56
2023-12-30T05:20:35.316Z,99972.31
2023-12-30T05:24:37.373Z,99963.44
2023-12-30T05:28:38.856Z,99967.75
2023-12-30T05:32:40.546Z,99973.47
2023-12-30T05:36:44.652Z,99971.94
2023-12-30T05:40:46.199Z,99932.63
2023-12-30T05:44:48.807Z,99982.44
2023-12-30T05:48:50.890Z,99985.41
2023-12-30T05:52:54.116Z,99988.78
2023-12-30T05:56:55.793Z,99996.13
2023-12-30T06:00:59.752Z,99995.22
2023-12-30T06:05:01.419Z,99998.47
2023-12-30T06:09:04.616Z,99994.09
2023-12-30T06:13:07.513Z,100001.72
2023-12-30T06:17:09.066Z,100009.22
2023-12-30T06:21:11.038Z,100008.47
2023-12-30T06:25:14.093Z,100005.31
2023-12-30T06:29:15.743Z,100003.66
2023-12-30T06:33:17.811Z,100009.78
2023-12-30T06:37:20.591Z,100013.03
2023-12-30T06:41:24.912Z,100023.03
2023-12-30T06:45:26.933Z,100027.94
2023-12-30T06:49:30.161Z,100028.75
2023-12-30T06:53:32.081Z,100040.16
2023-12-30T06:57:34.967Z,100036.47
2023-12-30T07:01:37.995Z,100036.47
2023-12-30T07:05:39.736Z,100043.22
2023-12-30T07:09:41.315Z,100053.53
2023-12-30T07:13:44.266Z,100068.00
2023-12-30T07:17:46.152Z,100073.34
2023-12-30T07:21:47.977Z,100084.69
2023-12-30T07:25:49.646Z,100080.81
2023-12-30T07:29:55.094Z,100079.19
2023-12-30T07:33:57.020Z,100076.84
2023-12-30T07:37:58.922Z,100079.44
2023-12-30T07:42:00.578Z,100086.81
2023-12-30T07:46:03.962Z,100082.03
2023-12-30T07:50:07.563Z,100092.09
2023-12-30T07:54:09.199Z,100094.25
2023-12-30T07:58:10.992Z,100094.25
2023-12-30T08:02:15.841Z,100105.56
2023-12-30T08:06:17.600Z,100115.81
2023-12-30T08:10:21.580Z,100123.31
2023-12-30T08:14:23.189Z,100116.16
2023-12-30T08:18:26.220Z,100122.47
2023-12-30T08:22:28.151Z,100123.59
2023-12-30T08:26:29.990Z,100142.28
2023-12-30T08:30:31.597Z,100140.91
2023-12-30T08:34:34.676Z,100146.38
2023-12-30T08:38:36.560Z,100137.88
2023-12-30T08:42:39.785Z,100145.09
2023-12-30T08:46:41.577Z,100147.78
2023-12-30T08:50:44.543Z,100147.41
2023-12-30T08:54:46.826Z,100152.91
2023-12-30T08:58:49.146Z,100148.97
2023-12-30T09:02:50.755Z,100150.38
2023-12-30T09:06:53.881Z,100158.41
2023-12-30T09:10:55.662Z,100160.53
2023-12-30T09:14:57.290Z,100170.78
2023-12-30T09:18:59.227Z,100169.34
2023-12-30T09:23:10.827Z,100177.13
2023-12-30T09:27:13.313Z,100166.41
2023-12-30T09:31:16.112Z,100171.50
2023-12-30T09:35:17.721Z,100178.88
2023-12-30T09:39:27.529Z,100170.78
2023-12-30T09:43:29.598Z,100168.31
2023-12-30T09:47:38.034Z,100166.88
2023-12-30T09:51:40.137Z,100177.50
2023-12-30T09:55:44.064Z,100177.06
2023-12-30T09:59:48.216Z,100164.00
2023-12-30T10:03:50.246Z,100163.78
2023-12-30T10:07:52.982Z,100174.31
2023-12-30T10:11:56.193Z,100177.97
2023-12-30T10:15:59.933Z,100177.81
2023-12-30T10:20:01.728Z,100181.19
2023-12-30T10:24:11.091Z,100177.91
2023-12-30T10:28:14.202Z,100174.06
2023-12-30T10:32:21.724Z,100168.59
2023-12-30T10:36:23.651Z,100146.44
2023-12-30T10:40:25.680Z,100149.09
2023-12-30T10:44:28.626Z,100142.16
2023-12-30T10:48:31.777Z,100148.97
2023-12-30T10:52:36.814Z,100138.34
2023-12-30T10:56:45.406Z,100139.06
2023-12-30T11:00:53.057Z,100133.81
2023-12-30T11:04:56.386Z,100128.34
2023-12-30T11:08:59.687Z,100136.63
2023-12-30T11:13:01.992Z,100135.66
2023-12-30T11:17:05.321Z,100134.97
2023-12-30T11:21:07.354Z,100133.72
2023-12-30T11:25:09.688Z,100122.38
2023-12-30T11:29:12.559Z,100121.69
2023-12-30T11:33:15.760Z,100117.16
2023-12-30T11:37:19.370Z,100122.19
2023-12-30T11:41:20.942Z,100121.88
2023-12-30T11:45:22.528Z,100124.81
2023-12-30T11:49:26.738Z,100122.25
2023-12-30T11:53:33.937Z,100101.13
2023-12-30T11:57:37.191Z,100095.41
2023-12-30T12:01:39.303Z,100086.19
2023-12-30T12:05:42.455Z,100087.00
2023-12-30T12:09:44.322Z,100083.41
2023-12-30T12:13:46.029Z,100081.38
2023-12-30T12:17:50.527Z,100075.72
2023-12-30T12:22:00.034Z,100070.84
2023-12-30T12:26:01.832Z,100064.75
2023-12-30T12:30:04.067Z,100070.53
2023-12-30T12:34:20.618Z,100066.28
2023-12-30T12:38:23.642Z,100059.69
2023-12-30T12:42:30.711Z,100061.31
2023-12-30T12:46:33.205Z,100059.28
2023-12-30T12:50:35.112Z,100059.59
2023-12-30T12:54:38.054Z,100044.59
2023-12-30T12:58:40.000Z,100033.78
2023-12-30T13:02:41.756Z,100037.78
2023-12-30T13:06:43.564Z,100037.44
2023-12-30T13:10:46.515Z,100027.38
2023-12-30T13:14:48.538Z,100010.06
2023-12-30T13:18:50.291Z,100017.28
2023-12-30T13:22:51.878Z,100008.91
2023-12-30T13:26:55.031Z,100016.38
2023-12-30T13:30:57.380Z,100008.94
2023-12-30T13:34:59.489Z,100004.66
2023-12-30T13:39:01.246Z,99998.72
2023-12-30T13:43:04.476Z,100002.19
2023-12-30T13:47:06.259Z,100003.38
2023-12-30T13:51:08.144Z,99998.47
2023-12-30T13:55:09.919Z,99992.91
2023-12-30T13:59:13.373Z,99990.00
2023-12-30T14:03:15.280Z,99990.56
2023-12-30T14:07:16.998Z,99986.97
2023-12-30T14:11:18.925Z,99991.69
2023-12-30T14:15:21.812Z,99984.94
2023-12-30T14:19:23.620Z,99983.28
2023-12-30T14:23:26.306Z,99975.63
2023-12-30T14:27:28.085Z,99976.00
2023-12-30T14:31:31.049Z,99975.28
2023-12-30T14:35:32.601Z,99974.66
2023-12-30T14:39:34.354Z,99971.06
2023-12-30T14:43:36.990Z,99962.22
2023-12-30T14:47:40.970Z,99967.78
2023-12-30T14:51:42.618Z,99970.44
2023-12-30T14:55:44.226Z,99964.13
2023-12-30T14:59:45.901Z,99959.97
2023-12-30T15:03:50.316Z,99953.78
2023-12-30T15:07:55.764Z,99949.94
2023-12-30T15:11:59.653Z,99951.59
2023-12-30T15:16:01.369Z,99937.38
2023-12-30T15:20:05.241Z,99934.72
2023-12-30T15:24:07.057Z,99924.47
2023-12-30T15:28:09.427Z,99931.44
2023-12-30T15:32:12.607Z,99927.56
2023-12-30T15:36:15.668Z,99922.34
2023-12-30T15:40:17.544Z,99925.81
2023-12-30T15:44:19.475Z,99918.94
2023-12-30T15:48:21.843Z,99915.41
2023-12-30T15:52:25.640Z,99913.66
2023-12-30T15:56:29.646Z,99915.25
2023-12-30T16:00:31.360Z,99917.44
2023-12-30T16:04:33.070Z,99924.81
2023-12-30T16:08:37.465Z,99919.38
2023-12-30T16:12:39.059Z,99911.31
2023-12-30T16:16:41.098Z,99912.94
2023-12-30T16:20:42.787Z,99912.53
2023-12-30T16:24:45.784Z,99907.03
2023-12-30T16:28:47.759Z,99907.03
2023-12-30T16:32:49.629Z,99911.13
2023-12-30T16:36:51.355Z,99911.53
2023-12-30T16:40:54.464Z,99906.75
2023-12-30T16:44:56.196Z,99891.66
2023-12-30T16:48:57.751Z,99889.91
2023-12-30T16:52:59.397Z,99888.28
2023-12-30T16:57:02.688Z,99889.59
2023-12-30T17:01:04.333Z,99896.44
2023-12-30T17:05:06.767Z,99897.38
2023-12-30T17:09:08.429Z,99902.84
2023-12-30T17:13:11.468Z,99896.53
2023-12-30T17:17:14.089Z,99893.56
2023-12-30T17:21:15.849Z,99894.91
2023-12-30T17:25:17.551Z,99894.69
2023-12-30T17:29:21.001Z,99898.34
2023-12-30T17:33:22.715Z,99902.63
2023-12-30T17:37:24.513Z,99894.44
2023-12-30T17:41:26.807Z,99892.16
2023-12-30T17:45:29.688Z,99903.88
2023-12-30T17:49:31.307Z,99897.44
2023-12-30T17:53:33.073Z,99881.03
2023-12-30T17:57:34.901Z,99869.78
2023-12-30T18:01:37.877Z,99883.34
2023-12-30T18:05:39.713Z,99878.53
2023-12-30T18:09:42.122Z,99860.38
2023-12-30T18:13:45.473Z,99854.94
2023-12-30T18:17:49.311Z,99859.41
2023-12-30T18:21:51.949Z,99861.88
2023-12-30T18:25:53.681Z,99854.22
2023-12-30T18:29:56.507Z,99856.78
2023-12-30T18:33:59.454Z,99849.56
2023-12-30T18:38:01.034Z,99847.91
2023-12-30T18:42:03.880Z,99841.03
2023-12-30T18:46:05.883Z,99839.81
2023-12-30T18:50:09.352Z,99829.22
2023-12-30T18:54:10.961Z,99833.53
2023-12-30T18:58:14.113Z,99842.91
2023-12-30T19:02:16.946Z,99822.41
2023-12-30T19:06:22.619Z,99825.56
2023-12-30T19:10:24.504Z,99820.97
2023-12-30T19:14:26.256Z,99821.69
2023-12-30T19:18:27.970Z,99823.03
2023-12-30T19:22:32.276Z,99813.03
2023-12-30T19:26:34.185Z,99816.78
2023-12-30T19:30:36.049Z,99811.47
2023-12-30T19:34:37.725Z,99800.25
2023-12-30T19:38:41.230Z,99771.22
2023-12-30T19:42:43.966Z,99780.78
2023-12-30T19:46:45.609Z,99774.47
2023-12-30T19:50:47.446Z,99772.09
2023-12-30T19:54:50.264Z,99767.59
2023-12-30T19:58:52.038Z,99771.72
2023-12-30T20:02:53.614Z,99769.84
2023-12-30T20:06:55.485Z,99765.38
2023-12-30T20:10:58.703Z,99760.94
2023-12-30T20:15:00.354Z,99757.78
2023-12-30T20:19:02.020Z,99755.00
2023-12-30T20:23:03.959Z,99761.47
2023-12-30T20:27:07.404Z,99764.94
2023-12-30T20:31:09.721Z,99760.56
2023-12-30T20:35:11.819Z,99755.94
2023-12-30T20:39:17.057Z,99751.75
2023-12-30T20:43:20.513Z,99743.88
2023-12-30T20:47:22.080Z,99735.72
2023-12-30T20:51:25.057Z,99717.44
2023-12-30T20:55:26.982Z,99715.00
2023-12-30T20:59:29.925Z,99713.00
2023-12-30T21:03:32.136Z,99716.25
2023-12-30T21:07:34.108Z,99715.38
2023-12-30T21:11:36.164Z,99704.28
2023-12-30T21:15:39.754Z,99700.53
2023-12-30T21:19:41.440Z,99693.47
2023-12-30T21:23:43.257Z,99677.94
2023-12-30T21:27:44.879Z,99678.19
2023-12-30T21:31:47.952Z,99669.28
2023-12-30T21:35:49.699Z,99659.72
2023-12-30T21:39:51.275Z,99652.16
2023-12-30T21:43:54.113Z,99639.16
2023-12-30T21:47:57.135Z,99640.97
2023-12-30T21:51:58.819Z,99633.75
2023-12-30T21:56:00.451Z,99617.13
2023-12-30T22:00:02.156Z,99609.50
2023-12-30T22:04:05.958Z,99615.91
2023-12-30T22:08:07.764Z,99608.00
2023-12-30T22:12:09.322Z,99594.09
2023-12-30T22:16:11.938Z,99582.28
2023-12-30T22:20:14.949Z,99574.13
2023-12-30T22:24:16.573Z,99565.50
2023-12-30T22:28:18.215Z,99556.38
2023-12-30T22:32:21.031Z,99549.09
2023-12-30T22:36:28.026Z,99553.53
2023-12-30T22:40:29.892Z,99541.34
2023-12-30T22:44:31.524Z,99528.81
2023-12-30T22:48:33.170Z,99516.78
2023-12-30T22:52:36.769Z,99525.88
2023-12-30T22:56:38.348Z,99515.16
2023-12-30T23:00:40.164Z,99506.22
2023-12-30T23:04:41.899Z,99494.28
2023-12-30T23:08:44.821Z,99482.19
2023-12-30T23:12:46.490Z,99466.66
2023-12-30T23:16:48.445Z,99479.88
2023-12-30T23:20:50.160Z,99468.03
2023-12-30T23:24:53.116Z,99463.28
2023-12-30T23:28:55.912Z,99448.53
2023-12-30T23:32:57.487Z,99447.59
2023-12-30T23:36:59.308Z,99439.25
2023-12-30T23:41:02.490Z,99445.19
2023-12-30T23:45:05.072Z,99439.84
2023-12-30T23:49:06.826Z,99429.19
2023-12-30T23:53:08.419Z,99415.16
2023-12-30T23:57:11.394Z,99428.06
